createdAt,value
2022-11-20T00:00:58.528Z,7.03
2022-11-20T00:03:24.938Z,7.47
2022-11-20T00:05:51.395Z,7.22
2022-11-20T00:08:17.764Z,7.45
2022-11-20T00:10:44.131Z,7.05
2022-11-20T00:13:10.608Z,7.97
2022-11-20T00:15:37.026Z,8.10
2022-11-20T00:18:03.644Z,7.10
2022-11-20T00:20:30.294Z,7.72
2022-11-20T00:22:56.723Z,7.25
2022-11-20T00:25:23.178Z,7.83
2022-11-20T00:27:49.586Z,6.97
2022-11-20T00:30:16.072Z,7.05
2022-11-20T00:32:42.550Z,7.28
2022-11-20T00:35:09.181Z,7.68
2022-11-20T00:37:35.611Z,7.53
2022-11-20T00:40:02.005Z,6.55
2022-11-20T00:42:28.501Z,7.13
2022-11-20T00:44:54.926Z,7.13
2022-11-20T00:47:24.159Z,6.85
2022-11-20T00:49:50.759Z,6.67
2022-11-20T00:52:17.153Z,6.57
2022-11-20T00:54:43.640Z,7.72
2022-11-20T00:57:10.017Z,7.32
2022-11-20T00:59:36.482Z,6.57
2022-11-20T01:02:02.914Z,6.60
2022-11-20T01:04:29.540Z,7.22
2022-11-20T01:06:55.943Z,7.95
2022-11-20T01:09:22.551Z,7.18
2022-11-20T01:11:49.354Z,7.32
2022-11-20T01:14:18.797Z,9.77
2022-11-20T01:16:49.105Z,8.00
2022-11-20T01:19:18.718Z,7.00
2022-11-20T01:21:47.484Z,7.60
2022-11-20T01:24:16.706Z,6.55
2022-11-20T01:26:45.793Z,6.90
2022-11-20T01:29:17.928Z,7.40
2022-11-20T01:31:44.798Z,7.60
2022-11-20T01:34:15.043Z,7.18
2022-11-20T01:36:45.065Z,7.25
2022-11-20T01:39:14.851Z,7.20
2022-11-20T01:42:05.724Z,6.93
2022-11-20T01:44:58.905Z,7.13
2022-11-20T01:47:50.244Z,6.88
2022-11-20T01:50:36.940Z,7.00
2022-11-20T01:53:09.514Z,6.87
2022-11-20T01:55:40.308Z,7.18
2022-11-20T01:58:07.542Z,7.00
2022-11-20T02:00:34.023Z,6.30
2022-11-20T02:03:10.285Z,6.85
2022-11-20T02:05:47.014Z,7.07
2022-11-20T02:08:14.041Z,6.85
2022-11-20T02:10:40.453Z,7.05
2022-11-20T02:13:25.638Z,6.78
2022-11-20T02:15:52.720Z,7.38
2022-11-20T02:18:21.546Z,6.50
2022-11-20T02:20:51.365Z,7.00
2022-11-20T02:23:32.054Z,6.53
2022-11-20T02:26:02.050Z,6.95
2022-11-20T02:28:28.475Z,6.85
2022-11-20T02:30:54.939Z,7.07
2022-11-20T02:33:24.120Z,6.68
2022-11-20T02:35:50.575Z,6.80
2022-11-20T02:38:17.142Z,7.03
2022-11-20T02:40:43.921Z,7.70
2022-11-20T02:43:10.456Z,7.47
2022-11-20T02:45:37.507Z,7.63
2022-11-20T02:48:04.496Z,7.65
2022-11-20T02:50:31.029Z,7.65
2022-11-20T02:52:57.551Z,7.88
2022-11-20T02:55:24.055Z,7.87
2022-11-20T02:57:50.589Z,7.75
2022-11-20T03:00:19.672Z,7.60
2022-11-20T03:02:46.167Z,7.80
2022-11-20T03:05:12.661Z,7.90
2022-11-20T03:07:39.374Z,7.83
2022-11-20T03:10:06.646Z,8.20
2022-11-20T03:12:34.230Z,8.07
2022-11-20T03:15:00.623Z,7.65
2022-11-20T03:17:27.143Z,7.55
2022-11-20T03:19:53.710Z,7.47
2022-11-20T03:22:21.290Z,7.97
2022-11-20T03:24:48.096Z,7.30
2022-11-20T03:27:14.558Z,8.02
2022-11-20T03:29:44.201Z,8.35
2022-11-20T03:32:10.772Z,7.50
2022-11-20T03:34:37.227Z,7.18
2022-11-20T03:37:03.664Z,7.70
2022-11-20T03:39:30.077Z,7.55
2022-11-20T03:41:56.450Z,7.93
2022-11-20T03:44:23.145Z,7.37
2022-11-20T03:46:49.709Z,7.97
2022-11-20T03:49:18.522Z,7.35
2022-11-20T03:51:45.180Z,7.70
2022-11-20T03:54:11.591Z,7.88
2022-11-20T03:56:40.322Z,7.53
2022-11-20T03:59:07.103Z,6.95
2022-11-20T04:01:37.244Z,7.45
2022-11-20T04:04:03.950Z,7.00
2022-11-20T04:06:34.279Z,7.97
2022-11-20T04:09:01.123Z,7.47
2022-11-20T04:11:31.242Z,7.65
2022-11-20T04:14:00.620Z,7.60
2022-11-20T04:16:29.809Z,6.65
2022-11-20T04:18:58.429Z,7.95
2022-11-20T04:21:27.927Z,7.60
2022-11-20T04:23:55.052Z,7.50
2022-11-20T04:26:23.710Z,7.28
2022-11-20T04:28:50.837Z,7.53
2022-11-20T04:31:19.902Z,7.95
2022-11-20T04:33:47.226Z,7.00
2022-11-20T04:36:16.377Z,7.45
2022-11-20T04:38:43.701Z,7.82
2022-11-20T04:41:17.272Z,7.13
2022-11-20T04:43:48.911Z,7.20
2022-11-20T04:46:15.922Z,7.90
2022-11-20T04:48:42.593Z,7.72
2022-11-20T04:51:08.982Z,6.90
2022-11-20T04:53:35.415Z,7.40
2022-11-20T04:56:03.270Z,7.53
2022-11-20T04:58:29.865Z,7.03
2022-11-20T05:01:09.510Z,6.72
2022-11-20T05:03:41.011Z,7.45
2022-11-20T05:06:09.977Z,6.70
2022-11-20T05:08:36.579Z,7.30
2022-11-20T05:11:11.883Z,6.77
2022-11-20T05:13:39.237Z,6.95
2022-11-20T05:16:12.361Z,6.53
2022-11-20T05:18:42.417Z,6.88
2022-11-20T05:21:10.103Z,6.97
2022-11-20T05:23:36.846Z,6.57
2022-11-20T05:26:04.057Z,7.07
2022-11-20T05:28:31.336Z,6.35
2022-11-20T05:31:15.242Z,7.32
2022-11-20T05:33:43.793Z,7.25
2022-11-20T05:36:11.231Z,6.67
2022-11-20T05:38:37.975Z,6.60
2022-11-20T05:41:16.613Z,6.65
2022-11-20T05:43:45.327Z,6.60
2022-11-20T05:46:14.250Z,6.97
2022-11-20T05:48:44.303Z,6.40
2022-11-20T05:51:13.254Z,6.18
2022-11-20T05:53:42.535Z,7.30
2022-11-20T05:56:16.428Z,6.35
2022-11-20T05:58:43.263Z,6.70
2022-11-20T06:01:16.344Z,6.17
2022-11-20T06:03:44.583Z,6.82
2022-11-20T06:06:13.395Z,6.85
2022-11-20T06:08:39.921Z,6.68
2022-11-20T06:11:08.709Z,6.95
2022-11-20T06:13:40.552Z,5.83
2022-11-20T06:16:08.629Z,6.50
2022-11-20T06:18:35.150Z,6.57
2022-11-20T06:21:13.594Z,6.57
2022-11-20T06:23:40.107Z,6.47
2022-11-20T06:26:12.241Z,6.60
2022-11-20T06:28:39.408Z,5.88
2022-11-20T06:31:08.507Z,7.00
2022-11-20T06:33:35.098Z,7.10
2022-11-20T06:36:07.210Z,6.70
2022-11-20T06:38:35.457Z,6.50
2022-11-20T06:41:01.902Z,5.82
2022-11-20T06:43:30.418Z,6.40
2022-11-20T06:46:02.907Z,6.15
2022-11-20T06:48:33.052Z,6.78
2022-11-20T06:50:59.864Z,6.27
2022-11-20T06:53:26.463Z,6.38
2022-11-20T06:55:56.566Z,6.45
2022-11-20T06:58:23.071Z,6.60
2022-11-20T07:00:49.507Z,6.97
2022-11-20T07:03:15.950Z,6.90
2022-11-20T07:05:42.494Z,7.10
2022-11-20T07:08:09.799Z,7.25
2022-11-20T07:10:36.434Z,7.35
2022-11-20T07:13:03.179Z,7.13
2022-11-20T07:15:31.987Z,7.10
2022-11-20T07:18:07.270Z,6.55
2022-11-20T07:20:33.691Z,6.90
2022-11-20T07:23:00.329Z,6.90
2022-11-20T07:25:28.311Z,6.43
2022-11-20T07:28:01.909Z,7.00
2022-11-20T07:30:29.266Z,6.55
2022-11-20T07:32:59.763Z,6.97
2022-11-20T07:35:26.706Z,6.38
2022-11-20T07:37:53.231Z,6.95
2022-11-20T07:40:20.808Z,6.57
2022-11-20T07:42:55.512Z,6.75
2022-11-20T07:45:24.198Z,6.65
2022-11-20T07:47:50.824Z,7.07
2022-11-20T07:50:17.937Z,7.00
2022-11-20T07:52:44.615Z,6.77
2022-11-20T07:55:11.615Z,7.50
2022-11-20T07:57:41.312Z,7.60
2022-11-20T08:00:10.400Z,6.30
2022-11-20T08:02:41.012Z,7.43
2022-11-20T08:05:12.208Z,6.37
2022-11-20T08:07:42.998Z,6.65
2022-11-20T08:10:11.768Z,6.97
2022-11-20T08:13:03.748Z,8.18
2022-11-20T08:15:30.570Z,7.43
2022-11-20T08:18:28.933Z,7.63
2022-11-20T08:20:50.694Z,7.43
2022-11-20T08:23:17.158Z,7.13
2022-11-20T08:25:43.605Z,7.07
2022-11-20T08:28:20.141Z,7.25
2022-11-20T08:30:51.044Z,7.33
2022-11-20T08:33:18.647Z,7.22
2022-11-20T08:35:45.167Z,7.25
2022-11-20T08:38:11.648Z,6.65
2022-11-20T08:40:41.058Z,7.65
2022-11-20T08:43:10.617Z,7.23
2022-11-20T08:45:37.083Z,7.65
2022-11-20T08:48:08.928Z,7.72
2022-11-20T08:50:35.412Z,7.63
2022-11-20T08:53:05.825Z,7.93
2022-11-20T08:55:32.609Z,8.20
2022-11-20T08:57:59.187Z,8.18
2022-11-20T09:00:25.756Z,8.15
2022-11-20T09:02:54.943Z,8.07
2022-11-20T09:05:21.482Z,7.90
2022-11-20T09:07:48.069Z,8.43
2022-11-20T09:10:23.974Z,8.48
2022-11-20T09:12:51.679Z,8.48
2022-11-20T09:15:18.593Z,8.05
2022-11-20T09:17:57.495Z,8.23
2022-11-20T09:20:31.540Z,8.00
2022-11-20T09:23:00.881Z,7.38
2022-11-20T09:25:27.424Z,7.97
2022-11-20T09:28:00.218Z,7.68
2022-11-20T09:30:28.780Z,7.63
2022-11-20T09:32:55.220Z,7.83
2022-11-20T09:35:24.310Z,8.35
2022-11-20T09:37:50.951Z,8.15
2022-11-20T09:40:28.663Z,8.38
2022-11-20T09:43:12.212Z,8.20
2022-11-20T09:45:45.220Z,7.73
2022-11-20T09:48:27.438Z,7.93
2022-11-20T09:51:00.518Z,7.57
2022-11-20T09:53:59.816Z,8.07
2022-11-20T09:56:27.048Z,7.78
2022-11-20T09:58:58.598Z,7.73
2022-11-20T10:01:32.968Z,8.38
2022-11-20T10:04:05.619Z,8.07
2022-11-20T10:06:45.110Z,8.10
2022-11-20T10:09:14.514Z,7.53
2022-11-20T10:12:18.148Z,11.07
2022-11-20T10:15:02.913Z,9.20
2022-11-20T10:17:43.984Z,8.00
2022-11-20T10:20:49.679Z,7.88
2022-11-20T10:23:52.217Z,8.55
2022-11-20T10:26:24.256Z,8.17
2022-11-20T10:29:17.892Z,8.43
2022-11-20T10:31:48.800Z,7.95
2022-11-20T10:34:25.384Z,8.32
2022-11-20T10:37:04.607Z,8.30
2022-11-20T10:39:39.148Z,7.10
2022-11-20T10:42:15.527Z,8.32
2022-11-20T10:45:05.792Z,8.88
2022-11-20T10:47:33.705Z,8.90
2022-11-20T10:50:05.799Z,8.52
2022-11-20T10:52:32.085Z,7.67
2022-11-20T10:55:30.297Z,9.57
2022-11-20T10:58:23.196Z,8.63
2022-11-20T11:00:49.869Z,8.95
2022-11-20T11:03:29.127Z,9.15
2022-11-20T11:06:09.790Z,9.30
2022-11-20T11:08:39.583Z,9.10
2022-11-20T11:11:29.882Z,8.25
2022-11-20T11:14:13.918Z,8.80
2022-11-20T11:17:00.383Z,8.68
2022-11-20T11:19:26.802Z,8.80
2022-11-20T11:21:56.165Z,9.27
2022-11-20T11:24:46.518Z,9.30
2022-11-20T11:27:18.654Z,9.00
2022-11-20T11:29:48.525Z,8.65
2022-11-20T11:32:22.789Z,9.03
2022-11-20T11:35:04.156Z,9.32
2022-11-20T11:37:38.971Z,8.98
2022-11-20T11:40:24.750Z,9.93
2022-11-20T11:43:02.186Z,11.32
2022-11-20T11:45:31.810Z,10.23
2022-11-20T11:48:02.066Z,9.68
2022-11-20T11:50:30.163Z,9.70
2022-11-20T11:53:19.104Z,9.60
2022-11-20T11:56:12.327Z,10.00
2022-11-20T11:59:12.607Z,9.70
2022-11-20T12:01:51.010Z,9.93
2022-11-20T12:04:29.853Z,10.18
2022-11-20T12:07:30.950Z,10.07
2022-11-20T12:09:58.542Z,10.43
2022-11-20T12:13:05.056Z,11.20
2022-11-20T12:15:38.592Z,10.38
2022-11-20T12:18:14.863Z,10.52
2022-11-20T12:20:54.422Z,10.90
2022-11-20T12:23:36.762Z,10.32
2022-11-20T12:26:14.971Z,10.23
2022-11-20T12:28:58.574Z,10.38
2022-11-20T12:31:55.496Z,9.23
2022-11-20T12:34:38.961Z,10.38
2022-11-20T12:37:20.568Z,10.25
2022-11-20T12:39:51.819Z,10.67
2022-11-20T12:42:45.673Z,10.05
2022-11-20T12:45:30.334Z,10.57
2022-11-20T12:48:18.040Z,10.23
2022-11-20T12:51:16.659Z,11.07
2022-11-20T12:53:59.074Z,9.80
2022-11-20T12:56:25.528Z,10.20
2022-11-20T12:59:12.176Z,10.40
2022-11-20T13:01:53.757Z,9.88
2022-11-20T13:04:57.759Z,10.82
2022-11-20T13:07:29.469Z,10.10
2022-11-20T13:09:56.710Z,10.60
2022-11-20T13:12:31.114Z,10.52
2022-11-20T13:15:15.986Z,9.38
2022-11-20T13:18:02.245Z,10.50
2022-11-20T13:20:31.184Z,10.93
2022-11-20T13:23:00.993Z,10.63
2022-11-20T13:25:28.724Z,10.40
2022-11-20T13:28:00.303Z,10.68
2022-11-20T13:30:28.970Z,10.77
2022-11-20T13:33:09.729Z,10.30
2022-11-20T13:35:41.435Z,9.70
2022-11-20T13:38:13.421Z,10.65
2022-11-20T13:41:22.386Z,10.65
2022-11-20T13:43:49.421Z,11.00
2022-11-20T13:46:16.255Z,10.83
2022-11-20T13:48:49.888Z,11.32
2022-11-20T13:51:21.899Z,11.15
2022-11-20T13:54:07.586Z,11.27
2022-11-20T13:56:55.854Z,10.88
2022-11-20T13:59:37.497Z,11.30
2022-11-20T14:02:07.141Z,9.98
2022-11-20T14:04:42.073Z,10.77
2022-11-20T14:07:10.134Z,10.48
2022-11-20T14:09:36.642Z,10.80
2022-11-20T14:12:10.501Z,10.70
2022-11-20T14:14:38.043Z,9.82
2022-11-20T14:17:21.479Z,9.93
2022-11-20T14:19:52.862Z,9.90
2022-11-20T14:22:26.996Z,10.10
2022-11-20T14:25:28.898Z,11.13
2022-11-20T14:28:01.169Z,10.30
2022-11-20T14:30:37.227Z,11.02
2022-11-20T14:33:07.506Z,10.40
2022-11-20T14:35:44.033Z,11.00
2022-11-20T14:38:15.057Z,11.53
2022-11-20T14:40:43.245Z,9.38
2022-11-20T14:43:27.709Z,10.48
2022-11-20T14:46:03.846Z,10.80
2022-11-20T14:48:40.321Z,9.95
2022-11-20T14:51:06.953Z,11.30
2022-11-20T14:53:36.456Z,10.82
2022-11-20T14:56:03.982Z,11.00
2022-11-20T14:58:34.322Z,11.30
2022-11-20T15:01:09.017Z,11.50
2022-11-20T15:03:42.552Z,12.23
2022-11-20T15:06:14.588Z,12.02
2022-11-20T15:08:52.156Z,10.93
2022-11-20T15:11:21.940Z,11.98
2022-11-20T15:13:48.475Z,11.23
2022-11-20T15:16:20.907Z,12.13
2022-11-20T15:18:48.214Z,11.02
2022-11-20T15:21:19.887Z,11.27
2022-11-20T15:23:47.040Z,11.23
2022-11-20T15:26:19.893Z,11.25
2022-11-20T15:28:51.222Z,11.00
2022-11-20T15:31:23.935Z,11.25
2022-11-20T15:33:50.975Z,11.80
2022-11-20T15:36:17.436Z,10.90
2022-11-20T15:38:43.882Z,10.35
2022-11-20T15:41:12.191Z,11.00
2022-11-20T15:43:39.475Z,10.95
2022-11-20T15:46:10.225Z,10.25
2022-11-20T15:49:06.663Z,10.95
2022-11-20T15:52:02.557Z,11.20
2022-11-20T15:54:35.135Z,11.33
2022-11-20T15:57:03.205Z,10.35
2022-11-20T15:59:29.618Z,10.77
2022-11-20T16:01:57.217Z,11.32
2022-11-20T16:04:26.718Z,11.45
2022-11-20T16:06:53.167Z,10.80
2022-11-20T16:09:19.685Z,10.57
2022-11-20T16:11:48.854Z,11.25
2022-11-20T16:14:36.622Z,10.57
2022-11-20T16:17:03.817Z,10.75
2022-11-20T16:19:30.163Z,11.23
2022-11-20T16:22:02.943Z,10.80
2022-11-20T16:24:29.707Z,11.23
2022-11-20T16:26:57.014Z,11.50
2022-11-20T16:29:23.497Z,11.82
2022-11-20T16:31:50.190Z,10.87
2022-11-20T16:34:19.533Z,11.00
2022-11-20T16:36:46.004Z,10.70
2022-11-20T16:39:13.170Z,11.15
2022-11-20T16:41:39.681Z,11.40
2022-11-20T16:44:11.086Z,9.83
2022-11-20T16:46:37.940Z,10.07
2022-11-20T16:49:06.918Z,10.70
2022-11-20T16:51:39.258Z,10.25
2022-11-20T16:54:07.126Z,10.68
2022-11-20T16:56:33.899Z,10.90
2022-11-20T16:59:01.178Z,10.55
2022-11-20T17:01:29.265Z,10.98
2022-11-20T17:03:58.754Z,11.00
2022-11-20T17:06:28.154Z,9.88
2022-11-20T17:08:57.240Z,10.07
2022-11-20T17:11:25.041Z,9.80
2022-11-20T17:13:52.017Z,11.25
2022-11-20T17:16:21.637Z,9.93
2022-11-20T17:18:50.204Z,10.50
2022-11-20T17:21:18.101Z,10.40
2022-11-20T17:23:45.746Z,11.27
2022-11-20T17:26:16.439Z,9.70
2022-11-20T17:28:43.362Z,10.60
2022-11-20T17:31:13.063Z,10.45
2022-11-20T17:33:41.418Z,9.73
2022-11-20T17:36:09.725Z,9.88
2022-11-20T17:38:36.813Z,10.27
2022-11-20T17:41:05.204Z,10.35
2022-11-20T17:43:35.697Z,10.50
2022-11-20T17:46:19.524Z,9.53
2022-11-20T17:48:47.511Z,9.82
2022-11-20T17:51:22.979Z,9.82
2022-11-20T17:53:52.044Z,9.60
2022-11-20T17:56:37.465Z,10.00
2022-11-20T17:59:08.702Z,10.30
2022-11-20T18:01:35.463Z,9.48
2022-11-20T18:04:02.520Z,11.02
2022-11-20T18:06:32.679Z,9.85
2022-11-20T18:09:00.251Z,9.70
2022-11-20T18:11:29.231Z,10.17
2022-11-20T18:14:16.819Z,9.60
2022-11-20T18:16:59.338Z,9.82
2022-11-20T18:19:32.197Z,9.82
2022-11-20T18:22:01.382Z,9.68
2022-11-20T18:24:27.847Z,8.93
2022-11-20T18:26:54.248Z,9.43
2022-11-20T18:29:20.902Z,9.77
2022-11-20T18:31:54.103Z,9.95
2022-11-20T18:34:20.775Z,10.10
2022-11-20T18:36:47.515Z,9.70
2022-11-20T18:39:14.850Z,8.93
2022-11-20T18:42:00.569Z,9.05
2022-11-20T18:44:48.033Z,10.18
2022-11-20T18:47:18.294Z,8.75
2022-11-20T18:49:50.779Z,8.63
2022-11-20T18:52:18.746Z,8.90
2022-11-20T18:54:45.579Z,7.95
2022-11-20T18:57:14.821Z,8.50
2022-11-20T18:59:44.639Z,9.10
2022-11-20T19:02:13.189Z,8.97
2022-11-20T19:04:40.019Z,9.45
2022-11-20T19:07:06.651Z,8.82
2022-11-20T19:09:33.718Z,9.32
2022-11-20T19:12:00.170Z,10.00
2022-11-20T19:14:26.674Z,9.03
2022-11-20T19:16:53.262Z,9.13
2022-11-20T19:19:19.808Z,8.80
2022-11-20T19:21:48.307Z,9.20
2022-11-20T19:24:14.928Z,10.10
2022-11-20T19:26:41.520Z,9.37
2022-11-20T19:29:13.557Z,9.57
2022-11-20T19:31:39.982Z,9.20
2022-11-20T19:34:06.525Z,9.02
2022-11-20T19:36:35.108Z,9.35
2022-11-20T19:39:02.227Z,9.10
2022-11-20T19:41:31.595Z,8.70
2022-11-20T19:43:59.907Z,9.50
2022-11-20T19:46:28.074Z,9.20
2022-11-20T19:48:55.950Z,8.93
2022-11-20T19:51:27.937Z,8.97
2022-11-20T19:53:58.553Z,8.23
2022-11-20T19:56:26.522Z,9.05
2022-11-20T19:58:55.359Z,9.38
2022-11-20T20:01:24.536Z,8.77
2022-11-20T20:03:51.859Z,9.43
2022-11-20T20:06:24.062Z,9.00
2022-11-20T20:09:12.014Z,8.32
2022-11-20T20:11:40.018Z,8.55
2022-11-20T20:14:16.297Z,9.07
2022-11-20T20:16:43.177Z,8.57
2022-11-20T20:19:14.838Z,8.93
2022-11-20T20:21:41.413Z,9.00
2022-11-20T20:24:09.841Z,8.98
2022-11-20T20:26:36.409Z,8.75
2022-11-20T20:29:06.725Z,8.97
2022-11-20T20:31:33.706Z,8.73
2022-11-20T20:34:03.454Z,8.95
2022-11-20T20:36:30.036Z,8.40
2022-11-20T20:38:59.703Z,9.10
2022-11-20T20:41:26.538Z,8.33
2022-11-20T20:44:12.169Z,8.20
2022-11-20T20:46:39.320Z,9.00
2022-11-20T20:49:05.837Z,8.55
2022-11-20T20:51:32.284Z,8.30
2022-11-20T20:53:59.638Z,9.00
2022-11-20T20:56:26.153Z,8.18
2022-11-20T20:58:52.631Z,9.07
2022-11-20T21:01:19.989Z,9.13
2022-11-20T21:03:46.759Z,8.57
2022-11-20T21:06:13.603Z,9.63
2022-11-20T21:08:41.657Z,9.60
2022-11-20T21:11:12.778Z,9.25
2022-11-20T21:13:40.966Z,9.30
2022-11-20T21:16:07.523Z,9.88
2022-11-20T21:18:34.294Z,9.03
2022-11-20T21:21:22.388Z,9.80
2022-11-20T21:23:49.026Z,10.00
2022-11-20T21:26:16.192Z,9.30
2022-11-20T21:28:43.246Z,9.02
2022-11-20T21:31:14.444Z,9.73
2022-11-20T21:33:43.162Z,9.43
2022-11-20T21:36:14.371Z,9.27
2022-11-20T21:38:40.985Z,9.10
2022-11-20T21:41:09.331Z,9.45
2022-11-20T21:43:36.063Z,9.20
2022-11-20T21:46:04.517Z,9.50
2022-11-20T21:48:32.519Z,9.05
2022-11-20T21:51:29.532Z,9.40
2022-11-20T21:53:56.531Z,9.95
2022-11-20T21:56:25.085Z,9.93
2022-11-20T21:58:53.184Z,9.75
2022-11-20T22:01:22.289Z,9.93
2022-11-20T22:03:50.641Z,10.20
2022-11-20T22:06:18.156Z,9.18
2022-11-20T22:08:45.183Z,10.13
2022-11-20T22:11:14.685Z,10.65
2022-11-20T22:13:59.794Z,10.20
2022-11-20T22:16:26.861Z,10.25
2022-11-20T22:18:55.501Z,9.65
2022-11-20T22:21:24.330Z,9.83
2022-11-20T22:23:51.381Z,10.20
2022-11-20T22:26:20.255Z,10.40
2022-11-20T22:28:52.057Z,10.73
2022-11-20T22:31:20.439Z,10.60
2022-11-20T22:33:47.467Z,10.53
2022-11-20T22:36:19.515Z,10.43
2022-11-20T22:38:46.002Z,9.82
2022-11-20T22:41:13.746Z,10.30
2022-11-20T22:43:41.259Z,11.00
2022-11-20T22:46:07.559Z,9.93
2022-11-20T22:48:35.290Z,10.45
2022-11-20T22:51:04.055Z,10.25
2022-11-20T22:53:30.773Z,10.77
2022-11-20T22:55:59.470Z,10.85
2022-11-20T22:58:30.267Z,10.23
2022-11-20T23:01:18.331Z,10.60
2022-11-20T23:03:47.226Z,10.90
2022-11-20T23:06:14.828Z,10.82
2022-11-20T23:08:42.038Z,11.05
2022-11-20T23:11:14.445Z,10.07
2022-11-20T23:13:41.695Z,10.65
2022-11-20T23:16:11.415Z,10.55
2022-11-20T23:18:38.640Z,11.50
2022-11-20T23:21:18.890Z,10.90
2022-11-20T23:23:50.803Z,9.93
2022-11-20T23:26:19.354Z,10.68
2022-11-20T23:28:48.498Z,10.90
2022-11-20T23:31:16.519Z,10.70
2022-11-20T23:33:44.886Z,10.43
2022-11-20T23:36:12.459Z,10.73
2022-11-20T23:38:39.575Z,10.85
2022-11-20T23:41:06.587Z,10.60
2022-11-20T23:43:33.687Z,10.75
2022-11-20T23:46:01.617Z,10.65
2022-11-20T23:48:30.713Z,10.40
2022-11-20T23:51:00.254Z,11.05
2022-11-20T23:53:27.384Z,10.90
2022-11-20T23:55:56.919Z,10.45
2022-11-20T23:58:25.279Z,11.27
